Aviation Digital Data Service (ADDS)

Output produced by TAFs form (0121 UTC 23 July 2017)
found at http://www.aviationweather.gov/adds/tafs/
 
METAR text: RJNK 230100Z 18005KT 9999 -SHRA FEW020 BKN030 BKN050 27/23 Q1006
Conditions at: RJNK (KOMATSU (CIV/JAS, JP) observed 0100 UTC 23 July 2017
Temperature: 27.0°C (81°F)
Dewpoint: 23.0°C (73°F) [RH = 79%]
Pressure (altimeter): 29.70 inches Hg (1006.0 mb)
Winds: from the S (180 degrees) at 6 MPH (5 knots; 2.6 m/s)
Visibility: 6 or more miles (10+ km)
Ceiling: 3000 feet AGL
Clouds: few clouds at 2000 feet AGL
broken clouds at 3000 feet AGL
broken clouds at 5000 feet AGL
Weather: -SHRA  (light rain showers)

Forecast for: RJNK (KOMATSU (CIV/JAS, JP)
Text: TAF RJNK 222306Z 2300/2406 21016KT 8000 -SHRA FEW015 BKN020
Forecast period: 0000 UTC 23 July 2017 to 0600 UTC 24 July 2017
Forecast type: FROM: standard forecast or significant change
Winds: from the SSW (210 degrees) at 18 MPH (16 knots; 8.3 m/s)
Visibility: 5 miles (8 km)
Ceiling: 2000 feet AGL
Clouds: few clouds at 1500 feet AGL
broken clouds at 2000 feet AGL
Weather: -SHRA  (light rain showers)
Text: TEMPO 2300/2306 3000 SHRA BR
Forecast period: 0000 to 0600 UTC 23 July 2017
Forecast type: TEMPORARY: The following changes expected for less than half the time period
Visibility: 1.86 miles (2.99 km)
Weather: SHRA BR  (rain showers, mist)